• Join FlightAware (Why Join?)
  • Login
  • US Flag 
09:02AM EDT


 

Airport Tracker/Info


-or-


 

Live Flight TrackerFlight Track Log ✈ N2162K ✈ 28-Jun-2013 ✈ KLWV - KEYE

Flight Track Log - Related Links

Times and Time Zones

All times are in EDT time to prevent confusion due to time zone crossing. See the N2162K flight status page for this flight to view local times or setup timezone preferences in your user account.

Time Position Orientation Groundspeed Altitude Reporting Facility
EDT Latitude Longitude Course Direction KTS MPH feet Rate Location/Type
11:53AM 38.9547 -87.4228 37° Northeast 139 160 5,000  Level Indianapolis Center
11:54AM 38.9842 -87.3889 42° Northeast 141 162 5,000  Level Indianapolis Center
11:55AM 39.0122 -87.3497 47° Northeast 143 165 5,000  Level Indianapolis Center
11:56AM 39.0394 -87.3117 47° Northeast 144 166 5,000  Level Indianapolis Center
11:57AM 39.0656 -87.2753 47° Northeast 142 163 5,000  Level Indianapolis Center
11:58AM 39.0931 -87.2369 47° Northeast 143 165 5,000  Level Indianapolis Center
11:59AM 39.1203 -87.2003 46° Northeast 142 163 5,000  Level Indianapolis Center
12:00PM 39.1542 -87.1589 43° Northeast 142 163 5,000  Level Indianapolis Center
12:01PM 39.1833 -87.1244 42° Northeast 142 163 5,000  Level Indianapolis Center
12:02PM 39.2114 -87.0917 42° Northeast 140 161 5,000  Level Indianapolis Center
12:03PM 39.2372 -87.0553 47° Northeast 139 160 5,000  Level Indianapolis Center
12:04PM 39.2672 -87.0211 41° Northeast 141 162 5,000  Level Indianapolis Center
12:05PM 39.2978 -86.9883 40° Northeast 143 165 5,000  Level Indianapolis Center
12:06PM 39.3317 -86.9486 42° Northeast 140 161 5,000  Level Indianapolis Center
12:07PM 39.3572 -86.9125 48° Northeast 138 159 5,000  Level Indianapolis Center
12:08PM 39.3828 -86.8739 49° Northeast 139 160 5,000  Level Indianapolis Center
12:09PM 39.4069 -86.8331 53° Northeast 141 162 5,000 -60 Level Indianapolis Center
12:10PM 39.4394 -86.7956 42° Northeast 144 166 4,900  Descending Indianapolis Center
12:12PM 39.4675 -86.7644 41° Northeast 144 166 5,000 60 Climbing Indianapolis Center
12:13PM 39.4936 -86.7294 46° Northeast 141 162 5,100  Climbing Indianapolis Center
12:14PM 39.5272 -86.6861 45° Northeast 141 162 5,000  Descending Indianapolis Center
12:15PM 39.5561 -86.6503 44° Northeast 142 163 5,100 -180 Climbing Indianapolis Center
12:16PM 39.5886 -86.6253 31° Northeast 139 160 4,700 -540 Descending Indianapolis Center
12:17PM 39.6225 -86.6061 24° Northeast 135 155 4,100 -360 Descending Indianapolis Center
12:18PM 39.6572 -86.5889 21° North 134 154 4,000  Descending Indianapolis Center
12:19PM 39.6944 -86.5694 22° Northeast 138 159 4,100 -180 Climbing Indianapolis Center
12:24PM 39.8770 -86.4490 22° Northeast 138 159 2,900 -240 Descending FlightAware
12:29PM 39.8520 -86.3130 103° East 118 136 2,000 -180 Descending FlightAware